Time;durP1;ratioP1;P1;durP2;ratioP2;P2;SDS_P1;SDS_P2;PMS_P1;PMS_P2;Temp;Humidity;BMP_temperature;BMP_pressure;BME280_temperature;BME280_humidity;BME280_pressure;Samples;Min_cycle;Max_cycle;Signal;HPM_P1;HPM_P2
2022/03/20 00:00:39;;;;;;;2.77;2.40;;;11.20;68.60;;;;;;5055367;28;20446;-48
2022/03/20 00:03:09;;;;;;;2.83;2.23;;;11.20;68.70;;;;;;5051243;28;20521;-45
2022/03/20 00:05:42;;;;;;;2.43;2.20;;;11.20;68.50;;;;;;5058967;28;20821;-46
2022/03/20 00:08:12;;;;;;;2.53;2.33;;;11.20;68.70;;;;;;5062870;28;20471;-48
2022/03/20 00:10:44;;;;;;;2.80;2.60;;;11.20;68.90;;;;;;5069017;28;20427;-47
2022/03/20 00:13:14;;;;;;;3.40;3.10;;;11.20;68.90;;;;;;5070482;28;20478;-47
2022/03/20 00:15:44;;;;;;;3.90;2.73;;;11.20;68.80;;;;;;5071149;28;21001;-48
2022/03/20 00:18:13;;;;;;;3.57;3.07;;;11.20;68.90;;;;;;5062347;28;20466;-48
2022/03/20 00:20:46;;;;;;;3.47;2.40;;;11.20;69.10;;;;;;5033415;28;20589;-46
2022/03/20 00:23:16;;;;;;;3.20;2.87;;;11.20;69.50;;;;;;5061219;28;20475;-48
2022/03/20 00:25:46;;;;;;;2.63;2.43;;;11.20;69.20;;;;;;5058669;28;20462;-50
2022/03/20 00:28:17;;;;;;;2.47;2.27;;;11.20;69.40;;;;;;5063026;28;20507;-48
2022/03/20 00:30:46;;;;;;;3.10;2.80;;;11.20;69.10;;;;;;5059257;28;20500;-47
2022/03/20 00:33:15;;;;;;;3.70;2.97;;;11.20;69.40;;;;;;5063245;28;20470;-48
2022/03/20 00:35:43;;;;;;;4.70;3.10;;;11.20;69.50;;;;;;5051149;28;20427;-47
2022/03/20 00:38:16;;;;;;;3.47;3.17;;;11.20;69.40;;;;;;5060602;28;20506;-46
2022/03/20 00:40:44;;;;;;;2.70;2.50;;;11.20;69.70;;;;;;5051227;28;20829;-50
2022/03/20 00:43:12;;;;;;;4.20;3.30;;;11.20;70.00;;;;;;5055941;28;20470;-47
2022/03/20 00:45:41;;;;;;;3.60;3.30;;;11.20;69.80;;;;;;5069441;28;20462;-48
2022/03/20 00:48:09;;;;;;;3.20;2.67;;;11.20;70.00;;;;;;5064200;28;20467;-48
2022/03/20 00:50:38;;;;;;;3.33;3.03;;;11.20;70.10;;;;;;5051086;28;20434;-48
2022/03/20 00:53:09;;;;;;;3.00;2.80;;;11.20;70.10;;;;;;5068358;28;20491;-47
2022/03/20 00:55:40;;;;;;;3.80;2.80;;;11.10;70.00;;;;;;5064876;28;20922;-46
2022/03/20 00:58:10;;;;;;;3.63;3.20;;;11.10;69.80;;;;;;5068799;28;20729;-47
2022/03/20 01:00:38;;;;;;;3.10;2.70;;;11.10;69.70;;;;;;5052989;28;21760;-47
2022/03/20 01:03:07;;;;;;;3.90;3.50;;;11.10;70.00;;;;;;5067767;28;20474;-47
2022/03/20 01:05:36;;;;;;;3.80;3.50;;;11.10;69.60;;;;;;5070355;28;20968;-47
2022/03/20 01:08:05;;;;;;;3.23;2.83;;;11.10;69.90;;;;;;5045848;28;20470;-46
2022/03/20 01:10:36;;;;;;;3.50;3.20;;;11.10;69.80;;;;;;5050744;28;20423;-44
2022/03/20 01:13:08;;;;;;;3.73;3.20;;;11.10;71.10;;;;;;5049778;28;20498;-46
2022/03/20 01:15:36;;;;;;;4.20;3.70;;;11.10;69.90;;;;;;5065907;28;20530;-47
2022/03/20 01:18:04;;;;;;;3.50;3.20;;;11.10;70.10;;;;;;5053437;28;20482;-46
2022/03/20 01:20:32;;;;;;;4.10;3.70;;;11.10;70.10;;;;;;5050687;28;20927;-47
2022/03/20 01:23:02;;;;;;;4.03;3.43;;;11.10;70.10;;;;;;5059786;28;20475;-48
2022/03/20 01:25:31;;;;;;;3.80;3.50;;;11.10;70.20;;;;;;5050150;28;20508;-45
2022/03/20 01:27:59;;;;;;;3.30;3.00;;;11.10;70.30;;;;;;5049455;28;20549;-48
2022/03/20 01:30:28;;;;;;;3.67;3.10;;;11.10;70.10;;;;;;5053936;28;20969;-48
2022/03/20 01:32:56;;;;;;;5.30;3.77;;;11.10;70.40;;;;;;5069845;28;20473;-47
2022/03/20 01:35:25;;;;;;;3.47;3.00;;;11.00;70.40;;;;;;5069360;28;20451;-46
2022/03/20 01:37:53;;;;;;;3.73;3.40;;;11.10;70.50;;;;;;5069600;28;20722;-48
2022/03/20 01:40:21;;;;;;;4.30;3.50;;;11.10;70.70;;;;;;5067643;28;20476;-48
2022/03/20 01:42:50;;;;;;;4.10;3.80;;;11.10;70.50;;;;;;5072921;28;20454;-48
2022/03/20 01:45:20;;;;;;;4.20;3.80;;;11.10;70.50;;;;;;5073105;28;20484;-48
2022/03/20 01:47:51;;;;;;;3.80;3.50;;;11.10;70.50;;;;;;5071668;28;20472;-47
2022/03/20 01:50:22;;;;;;;3.53;3.23;;;11.10;70.60;;;;;;5054204;28;20473;-47
2022/03/20 01:52:52;;;;;;;5.30;4.80;;;11.00;70.60;;;;;;5072599;28;20499;-47
2022/03/20 01:55:24;;;;;;;5.50;4.13;;;11.10;70.70;;;;;;5074049;28;20434;-47
2022/03/20 01:57:54;;;;;;;5.30;4.00;;;11.00;70.70;;;;;;5054661;28;20462;-47
2022/03/20 02:00:26;;;;;;;4.03;3.73;;;11.00;70.90;;;;;;5073257;28;20434;-48
2022/03/20 02:02:56;;;;;;;4.70;4.00;;;11.00;71.20;;;;;;5072516;28;20480;-49
2022/03/20 02:05:25;;;;;;;6.40;4.33;;;11.00;71.20;;;;;;5055617;28;20462;-45
2022/03/20 02:07:55;;;;;;;4.40;3.43;;;11.00;70.80;;;;;;5070349;28;20457;-47
2022/03/20 02:10:35;;;;;;;4.77;4.27;;;11.00;70.80;;;;;;5054141;28;20443;-47
2022/03/20 02:13:04;;;;;;;3.77;3.40;;;11.00;70.80;;;;;;5052604;28;20466;-45
2022/03/20 02:15:33;;;;;;;4.10;3.67;;;11.00;70.90;;;;;;5066186;28;21076;-46
2022/03/20 02:18:05;;;;;;;4.00;3.70;;;11.00;71.00;;;;;;5070120;28;20482;-46
2022/03/20 02:20:33;;;;;;;5.00;4.50;;;11.00;71.10;;;;;;5054688;28;20451;-49
2022/03/20 02:23:03;;;;;;;4.50;4.03;;;11.00;70.80;;;;;;5072095;28;20563;-47
2022/03/20 02:25:32;;;;;;;4.83;3.93;;;11.00;71.10;;;;;;5072999;28;20458;-48
2022/03/20 02:28:01;;;;;;;4.07;3.57;;;11.00;71.00;;;;;;5053040;28;20455;-47
2022/03/20 02:30:30;;;;;;;3.63;3.37;;;11.00;71.00;;;;;;5060189;28;20469;-45
2022/03/20 02:32:59;;;;;;;4.13;3.70;;;11.00;71.10;;;;;;5053204;28;20546;-48
2022/03/20 02:35:28;;;;;;;4.77;4.27;;;11.00;71.50;;;;;;5058987;28;20434;-47
2022/03/20 02:37:56;;;;;;;5.33;4.83;;;11.00;71.30;;;;;;5053835;28;20481;-45
2022/03/20 02:40:26;;;;;;;4.30;3.77;;;11.00;71.20;;;;;;5067548;28;20508;-48
2022/03/20 02:42:55;;;;;;;6.13;4.23;;;11.00;71.50;;;;;;5052907;28;20467;-47
2022/03/20 02:45:28;;;;;;;5.03;4.53;;;11.00;71.40;;;;;;5052133;28;20466;-50
2022/03/20 02:47:57;;;;;;;4.87;4.37;;;11.00;71.30;;;;;;5070316;28;20462;-45
2022/03/20 02:50:28;;;;;;;4.30;3.90;;;11.00;71.20;;;;;;5053578;28;20442;-46
2022/03/20 02:52:58;;;;;;;4.60;3.80;;;11.00;71.30;;;;;;5067179;28;20490;-47
2022/03/20 02:55:29;;;;;;;6.33;4.40;;;11.00;71.40;;;;;;5056638;28;20507;-47
2022/03/20 02:57:59;;;;;;;4.40;4.00;;;11.00;71.40;;;;;;5072718;28;20465;-47
2022/03/20 03:00:30;;;;;;;4.60;4.20;;;10.90;71.50;;;;;;5057914;28;20473;-47
2022/03/20 03:03:01;;;;;;;5.23;4.73;;;10.90;71.50;;;;;;5052546;28;20540;-47
2022/03/20 03:05:32;;;;;;;6.03;5.10;;;10.90;71.50;;;;;;5052014;28;20435;-46
2022/03/20 03:10:57;;;;;;;4.67;4.07;;;10.90;71.30;;;;;;5072985;28;20969;-47
2022/03/20 03:13:28;;;;;;;5.43;4.60;;;10.90;71.60;;;;;;5070691;28;20877;-47
2022/03/20 03:15:58;;;;;;;4.90;4.50;;;10.90;73.10;;;;;;5058746;28;20480;-46
2022/03/20 03:18:27;;;;;;;5.27;4.77;;;10.90;71.70;;;;;;5072133;28;20472;-46
2022/03/20 03:20:55;;;;;;;5.97;4.93;;;10.90;72.00;;;;;;5072761;28;20446;-47
2022/03/20 03:23:25;;;;;;;6.10;5.00;;;10.90;72.00;;;;;;5065339;28;20501;-46
2022/03/20 03:25:56;;;;;;;6.10;4.63;;;10.90;72.00;;;;;;5059031;28;20543;-47
2022/03/20 03:28:32;;;;;;;7.00;4.83;;;10.90;72.20;;;;;;5071446;28;20473;-46
2022/03/20 03:31:02;;;;;;;5.20;4.47;;;10.90;72.20;;;;;;5071800;28;20482;-49
2022/03/20 03:33:30;;;;;;;4.07;3.67;;;10.90;72.30;;;;;;5071166;28;20454;-48
2022/03/20 03:35:57;;;;;;;6.20;5.60;;;10.90;72.20;;;;;;5071618;28;20454;-47
2022/03/20 03:38:30;;;;;;;4.30;3.83;;;10.90;72.10;;;;;;5070031;28;20462;-46
2022/03/20 03:40:59;;;;;;;5.60;4.90;;;10.90;72.20;;;;;;5072012;28;20654;-45
2022/03/20 03:43:30;;;;;;;5.40;4.87;;;10.90;72.20;;;;;;5059950;28;20510;-47
2022/03/20 03:45:59;;;;;;;6.63;5.07;;;10.90;72.30;;;;;;5056301;28;20513;-47
2022/03/20 03:48:27;;;;;;;5.60;4.93;;;10.80;72.30;;;;;;5051638;28;20517;-49
2022/03/20 03:50:56;;;;;;;5.17;4.67;;;10.80;72.60;;;;;;5052200;28;20419;-49
2022/03/20 03:53:27;;;;;;;6.67;6.17;;;10.80;72.40;;;;;;5070819;28;20474;-48
2022/03/20 03:55:56;;;;;;;5.90;5.30;;;10.80;72.40;;;;;;5064428;28;20801;-47
2022/03/20 03:58:25;;;;;;;5.73;4.13;;;10.80;72.40;;;;;;5051055;28;20529;-49
2022/03/20 04:00:53;;;;;;;4.93;4.43;;;10.80;72.50;;;;;;5055900;28;20517;-47
2022/03/20 04:03:22;;;;;;;6.00;5.40;;;10.80;72.50;;;;;;5070414;28;20496;-46
2022/03/20 04:05:51;;;;;;;7.70;4.67;;;10.80;72.60;;;;;;5062671;28;20449;-45
2022/03/20 04:08:20;;;;;;;5.43;4.80;;;10.80;72.50;;;;;;5069159;28;20466;-48
2022/03/20 04:10:48;;;;;;;5.53;4.90;;;10.80;72.60;;;;;;5071201;28;20442;-49
2022/03/20 04:13:16;;;;;;;6.27;5.20;;;10.80;72.70;;;;;;5071091;28;20490;-44
2022/03/20 04:15:46;;;;;;;5.00;4.50;;;10.80;73.90;;;;;;5060356;28;20434;-46
2022/03/20 04:18:15;;;;;;;5.40;4.57;;;10.80;73.20;;;;;;5070630;28;20505;-46
2022/03/20 04:20:44;;;;;;;8.43;5.27;;;10.80;72.80;;;;;;5071258;28;20960;-47
2022/03/20 04:25:58;;;;;;;6.67;5.67;;;10.80;72.90;;;;;;5063206;28;20938;-48
2022/03/20 04:28:29;;;;;;;5.83;5.30;;;10.80;72.80;;;;;;5050900;28;20505;-47
2022/03/20 04:30:58;;;;;;;6.07;5.37;;;10.70;72.70;;;;;;5063715;28;20898;-47
2022/03/20 04:33:29;;;;;;;6.10;5.47;;;10.70;72.70;;;;;;5070693;28;20542;-46
2022/03/20 04:35:58;;;;;;;6.10;5.57;;;10.70;74.10;;;;;;5070169;28;20474;-49
2022/03/20 04:38:26;;;;;;;6.80;4.70;;;10.70;72.70;;;;;;5068122;28;20977;-48
2022/03/20 04:40:54;;;;;;;6.00;5.20;;;10.70;72.80;;;;;;5050815;28;20965;-47
2022/03/20 04:43:23;;;;;;;5.53;4.97;;;10.70;73.00;;;;;;5050164;28;20997;-47
2022/03/20 04:45:51;;;;;;;6.27;5.13;;;10.70;73.10;;;;;;5050301;28;20435;-47
2022/03/20 04:59:27;;;;;;;6.40;5.80;;;10.70;73.30;;;;;;5070617;28;20468;-44
2022/03/20 05:01:59;;;;;;;4.90;4.50;;;10.70;73.10;;;;;;5067900;28;20948;-47
2022/03/20 05:04:29;;;;;;;7.10;6.40;;;10.70;73.50;;;;;;5070342;28;20465;-48
2022/03/20 05:06:58;;;;;;;5.40;4.90;;;10.60;73.20;;;;;;5060547;28;20470;-43
2022/03/20 05:14:59;;;;;;;7.53;5.73;;;10.60;73.40;;;;;;5052355;28;20462;-49
2022/03/20 05:17:28;;;;;;;5.20;4.70;;;10.60;73.40;;;;;;5049964;28;20454;-46
2022/03/20 05:19:58;;;;;;;6.30;5.00;;;10.60;73.40;;;;;;5051423;28;20771;-45
2022/03/20 05:22:26;;;;;;;4.73;4.23;;;10.60;73.50;;;;;;5068296;28;20869;-46
2022/03/20 05:24:54;;;;;;;5.93;5.30;;;10.60;73.60;;;;;;5066958;28;20438;-47
2022/03/20 05:27:23;;;;;;;7.77;4.97;;;10.60;74.90;;;;;;5053583;28;20474;-48
2022/03/20 05:29:52;;;;;;;6.13;5.07;;;10.60;73.50;;;;;;5053920;28;20434;-46
2022/03/20 05:32:21;;;;;;;6.80;6.10;;;10.60;73.60;;;;;;5069925;28;20523;-49
2022/03/20 05:34:50;;;;;;;7.73;5.93;;;10.60;73.50;;;;;;5055019;28;20477;-47
2022/03/20 05:37:19;;;;;;;5.63;5.10;;;10.60;73.60;;;;;;5059432;28;20511;-47
2022/03/20 05:39:50;;;;;;;5.80;5.17;;;10.60;73.60;;;;;;5057962;28;20457;-47
2022/03/20 05:42:19;;;;;;;7.33;6.27;;;10.60;73.40;;;;;;5032639;28;20550;-49
2022/03/20 05:44:48;;;;;;;5.90;5.40;;;10.60;73.30;;;;;;5055680;28;20500;-46
2022/03/20 05:47:16;;;;;;;6.33;5.73;;;10.50;73.30;;;;;;5052472;28;20459;-47
2022/03/20 05:49:45;;;;;;;5.87;5.27;;;10.50;73.20;;;;;;5050392;28;20876;-45
2022/03/20 05:52:15;;;;;;;6.77;4.90;;;10.50;73.20;;;;;;5058492;28;20612;-47
2022/03/20 05:54:45;;;;;;;7.37;6.60;;;10.50;73.40;;;;;;5070050;28;20414;-47
2022/03/20 06:00:00;;;;;;;8.13;5.93;;;10.50;73.70;;;;;;5069013;28;20446;-46
2022/03/20 06:02:28;;;;;;;7.30;6.50;;;10.50;73.70;;;;;;5069033;28;20465;-44
2022/03/20 06:04:57;;;;;;;7.57;6.50;;;10.50;73.60;;;;;;5069843;28;20415;-46
2022/03/20 06:07:25;;;;;;;6.73;5.80;;;10.50;73.90;;;;;;5067797;28;20536;-47
2022/03/20 06:09:54;;;;;;;7.50;6.47;;;10.50;73.50;;;;;;5069594;28;20982;-45
2022/03/20 06:12:22;;;;;;;6.07;5.47;;;10.50;73.20;;;;;;5060259;28;20989;-46
2022/03/20 06:14:53;;;;;;;8.60;6.53;;;10.50;72.80;;;;;;5050256;28;20443;-48
2022/03/20 06:17:22;;;;;;;7.33;6.60;;;10.50;73.00;;;;;;5070011;28;20879;-45
2022/03/20 06:19:53;;;;;;;6.57;5.97;;;10.50;73.00;;;;;;5066135;28;20936;-45
2022/03/20 06:22:21;;;;;;;7.93;6.20;;;10.40;73.30;;;;;;5060640;28;20841;-47
2022/03/20 06:24:49;;;;;;;7.83;6.07;;;10.40;73.40;;;;;;5053074;28;20442;-46
2022/03/20 06:27:19;;;;;;;6.93;5.83;;;10.40;73.20;;;;;;5068832;28;20490;-48
2022/03/20 06:29:48;;;;;;;7.23;6.53;;;10.40;73.20;;;;;;5063209;28;20446;-46
2022/03/20 06:32:19;;;;;;;6.50;5.40;;;10.40;73.30;;;;;;5053562;28;20461;-49
2022/03/20 06:34:47;;;;;;;6.70;6.03;;;10.40;73.50;;;;;;5052921;28;20470;-46
2022/03/20 06:37:15;;;;;;;6.53;5.93;;;10.40;73.50;;;;;;5069132;28;20442;-46
2022/03/20 06:39:43;;;;;;;5.40;4.90;;;10.40;73.60;;;;;;5053543;28;20493;-46
2022/03/20 06:42:12;;;;;;;5.87;5.27;;;10.40;73.80;;;;;;5051910;28;20459;-45
2022/03/20 06:44:41;;;;;;;6.00;5.50;;;10.40;74.00;;;;;;5055116;28;20891;-45
2022/03/20 06:47:09;;;;;;;6.70;6.03;;;10.40;74.10;;;;;;5053631;28;20434;-44
2022/03/20 06:49:37;;;;;;;7.20;5.43;;;10.40;74.20;;;;;;5065901;28;20848;-46
2022/03/20 06:52:06;;;;;;;6.80;6.20;;;10.40;74.20;;;;;;5071691;28;21012;-46
2022/03/20 06:54:34;;;;;;;6.50;5.90;;;10.40;73.90;;;;;;5058213;28;20431;-48
2022/03/20 06:57:03;;;;;;;7.20;6.20;;;10.40;73.90;;;;;;5052583;28;20435;-46
2022/03/20 06:59:31;;;;;;;7.50;5.73;;;10.40;73.80;;;;;;5059537;28;20511;-46
2022/03/20 07:02:00;;;;;;;7.40;6.70;;;10.40;73.80;;;;;;5064106;28;20530;-45
2022/03/20 07:04:29;;;;;;;6.07;5.40;;;10.40;74.00;;;;;;5068765;28;20481;-48
2022/03/20 07:06:58;;;;;;;7.00;6.30;;;10.40;74.10;;;;;;5072873;28;20442;-47
2022/03/20 07:09:27;;;;;;;6.50;5.90;;;10.40;74.10;;;;;;5069279;28;20507;-46
2022/03/20 07:11:55;;;;;;;8.00;7.30;;;10.30;73.80;;;;;;5072130;28;20453;-47
2022/03/20 07:14:24;;;;;;;5.90;5.40;;;10.40;73.10;;;;;;5070699;28;20543;-48
2022/03/20 07:16:55;;;;;;;6.43;5.83;;;10.30;73.80;;;;;;5071981;28;20433;-45
2022/03/20 07:19:25;;;;;;;7.47;6.77;;;10.30;73.80;;;;;;5070989;28;20474;-47
2022/03/20 07:21:54;;;;;;;8.40;7.53;;;10.30;73.70;;;;;;5070144;28;20457;-45
2022/03/20 07:24:22;;;;;;;9.67;6.17;;;10.30;73.30;;;;;;5069617;28;20818;-45
2022/03/20 07:29:36;;;;;;;8.57;6.77;;;10.30;72.90;;;;;;5051867;28;20517;-47
2022/03/20 07:32:06;;;;;;;11.53;9.00;;;10.30;73.60;;;;;;5063592;28;20462;-46
2022/03/20 07:34:37;;;;;;;7.10;6.40;;;10.30;72.60;;;;;;5067333;28;20430;-47
2022/03/20 07:37:06;;;;;;;7.00;6.30;;;10.30;73.00;;;;;;5052442;28;20442;-45
2022/03/20 07:39:34;;;;;;;8.17;6.80;;;10.30;73.10;;;;;;5067535;28;20436;-45
2022/03/20 07:42:04;;;;;;;7.60;6.90;;;10.30;73.20;;;;;;5051112;28;20454;-46
2022/03/20 07:44:37;;;;;;;6.80;5.83;;;10.30;73.50;;;;;;5051286;28;20446;-46
2022/03/20 07:47:08;;;;;;;8.97;7.83;;;10.30;73.60;;;;;;5057512;28;20450;-45
2022/03/20 07:49:39;;;;;;;10.13;7.47;;;10.30;72.50;;;;;;5051606;28;20469;-45
2022/03/20 07:52:08;;;;;;;8.57;7.17;;;10.20;72.40;;;;;;5059021;28;20468;-45
2022/03/20 07:54:37;;;;;;;8.33;7.50;;;10.20;73.10;;;;;;5071404;28;20438;-47
2022/03/20 07:57:07;;;;;;;9.87;8.83;;;10.30;72.00;;;;;;5071016;28;20844;-47
2022/03/20 07:59:36;;;;;;;9.33;8.13;;;10.20;72.10;;;;;;5071282;28;20449;-47
2022/03/20 08:02:06;;;;;;;9.10;7.97;;;10.30;72.10;;;;;;5066666;28;20941;-48
2022/03/20 08:04:35;;;;;;;11.13;9.33;;;10.30;71.90;;;;;;5051215;28;20431;-45
2022/03/20 08:07:06;;;;;;;9.57;8.60;;;10.30;72.60;;;;;;5058232;28;20434;-44
2022/03/20 08:09:34;;;;;;;10.83;8.53;;;10.30;71.00;;;;;;5071166;28;20461;-47
2022/03/20 08:12:03;;;;;;;9.43;8.53;;;10.30;70.60;;;;;;5070339;28;20418;-48
2022/03/20 08:14:51;;;;;;;10.20;8.03;;;10.30;70.70;;;;;;5069431;28;20536;-46
2022/03/20 08:17:19;;;;;;;10.87;8.83;;;10.30;70.80;;;;;;5050451;28;20427;-50
2022/03/20 08:19:47;;;;;;;11.33;8.83;;;10.30;70.50;;;;;;5064666;28;20578;-47
2022/03/20 08:22:17;;;;;;;12.87;10.93;;;10.30;70.00;;;;;;5054410;28;20909;-47
2022/03/20 08:24:47;;;;;;;13.60;9.53;;;10.30;69.40;;;;;;5050937;28;20435;-47
2022/03/20 08:27:16;;;;;;;12.97;10.80;;;10.20;69.60;;;;;;5049971;28;20933;-47
2022/03/20 08:29:44;;;;;;;13.23;11.20;;;10.20;69.30;;;;;;5060435;28;20901;-45
2022/03/20 08:32:12;;;;;;;12.00;10.20;;;10.20;68.90;;;;;;5068356;28;20880;-47
2022/03/20 08:34:41;;;;;;;11.27;9.10;;;10.20;69.70;;;;;;5061978;28;20543;-45
2022/03/20 08:37:09;;;;;;;11.10;8.30;;;10.30;69.40;;;;;;5054766;28;20470;-46
2022/03/20 08:39:39;;;;;;;11.50;10.23;;;10.30;69.60;;;;;;5058859;28;20435;-46
2022/03/20 08:42:08;;;;;;;12.70;10.70;;;10.30;69.40;;;;;;5070073;28;21140;-46
2022/03/20 08:44:36;;;;;;;13.07;11.30;;;10.30;68.50;;;;;;5069786;28;20797;-46
2022/03/20 08:47:04;;;;;;;10.50;9.40;;;10.30;68.30;;;;;;5069078;28;20452;-46
2022/03/20 08:49:33;;;;;;;14.20;11.70;;;10.30;69.20;;;;;;5059576;28;20462;-47
2022/03/20 08:52:01;;;;;;;12.37;11.10;;;10.20;68.20;;;;;;5057449;28;20442;-46
2022/03/20 08:54:29;;;;;;;13.37;12.07;;;10.20;68.50;;;;;;5053762;28;20471;-46
2022/03/20 08:56:58;;;;;;;14.00;12.20;;;10.20;69.00;;;;;;5070139;28;20426;-46
2022/03/20 08:59:26;;;;;;;14.05;12.18;;;10.20;68.30;;;;;;5065837;28;20438;-46
2022/03/20 09:01:55;;;;;;;15.13;13.37;;;10.20;69.10;;;;;;5069198;28;20203;-46
2022/03/20 09:04:23;;;;;;;14.90;11.20;;;10.20;68.30;;;;;;5069421;28;20466;-45
2022/03/20 09:06:51;;;;;;;15.97;13.40;;;10.20;67.60;;;;;;5044837;28;20439;-46
2022/03/20 09:09:19;;;;;;;16.67;12.97;;;10.10;67.80;;;;;;5049718;28;20470;-44
2022/03/20 09:11:48;;;;;;;16.40;14.10;;;10.10;67.30;;;;;;5033148;28;20833;-47
2022/03/20 09:14:17;;;;;;;15.57;13.90;;;10.10;67.90;;;;;;5053899;28;20882;-49
2022/03/20 09:19:31;;;;;;;15.50;13.83;;;10.10;67.60;;;;;;5059441;28;20458;-47
2022/03/20 09:21:59;;;;;;;17.07;13.37;;;10.10;66.90;;;;;;5060992;28;20488;-45
2022/03/20 09:24:28;;;;;;;14.97;13.23;;;10.10;67.80;;;;;;5057859;28;20524;-46
2022/03/20 09:26:56;;;;;;;16.40;14.20;;;10.10;68.80;;;;;;5055884;28;20434;-45
2022/03/20 09:29:26;;;;;;;16.73;14.67;;;10.10;67.80;;;;;;5062676;28;20470;-46
2022/03/20 09:31:54;;;;;;;16.93;14.87;;;10.10;67.80;;;;;;5049296;28;20803;-45
2022/03/20 09:34:22;;;;;;;19.70;13.70;;;10.10;66.60;;;;;;5053661;28;20481;-46
2022/03/20 09:36:50;;;;;;;16.67;14.93;;;10.00;66.80;;;;;;5066695;28;21034;-45
2022/03/20 09:39:18;;;;;;;15.93;13.70;;;10.00;67.20;;;;;;5068371;28;20511;-45
2022/03/20 09:41:48;;;;;;;15.40;12.60;;;10.00;68.10;;;;;;5056888;28;21296;-46
2022/03/20 09:44:17;;;;;;;16.97;13.50;;;10.00;67.90;;;;;;5050487;28;20470;-49
2022/03/20 09:46:47;;;;;;;18.37;14.47;;;10.00;68.00;;;;;;5062744;28;20525;-47
2022/03/20 09:49:19;;;;;;;15.77;14.10;;;10.00;67.50;;;;;;5062708;28;21055;-46
2022/03/20 09:51:47;;;;;;;14.13;12.03;;;10.10;67.40;;;;;;5058467;28;20578;-49
2022/03/20 09:54:15;;;;;;;14.47;13.00;;;10.10;68.40;;;;;;5048868;28;20558;-50
2022/03/20 09:56:44;;;;;;;14.77;12.53;;;10.10;68.50;;;;;;5058905;28;20435;-49
2022/03/20 09:59:12;;;;;;;14.93;13.37;;;10.10;67.90;;;;;;5069064;28;20562;-46
2022/03/20 10:01:40;;;;;;;12.03;10.77;;;10.10;69.00;;;;;;5060284;28;20488;-45
2022/03/20 10:04:12;;;;;;;13.63;11.63;;;10.10;69.40;;;;;;5065336;28;20469;-45
2022/03/20 10:06:42;;;;;;;14.13;11.40;;;10.10;69.80;;;;;;5067711;28;20953;-45
2022/03/20 10:09:11;;;;;;;12.87;11.00;;;10.10;69.70;;;;;;5058163;28;20501;-45
2022/03/20 10:11:49;;;;;;;14.47;12.30;;;10.10;70.30;;;;;;5072798;28;20436;-46
2022/03/20 10:14:19;;;;;;;15.13;12.07;;;10.10;69.60;;;;;;5063237;28;20474;-46
2022/03/20 10:16:49;;;;;;;15.77;12.77;;;10.10;70.50;;;;;;5068766;28;20430;-46
2022/03/20 10:19:32;;;;;;;16.60;13.13;;;10.10;69.80;;;;;;5061585;28;20467;-49
2022/03/20 10:22:06;;;;;;;12.80;11.60;;;10.10;70.30;;;;;;5061194;28;20444;-45
2022/03/20 10:24:35;;;;;;;11.80;9.87;;;10.10;70.60;;;;;;5064486;28;20457;-46
2022/03/20 10:27:14;;;;;;;13.47;11.40;;;10.10;70.60;;;;;;5054052;28;20427;-46
2022/03/20 10:29:54;;;;;;;14.73;11.70;;;10.10;70.60;;;;;;5065501;28;20450;-47
2022/03/20 10:32:23;;;;;;;13.10;11.67;;;10.10;70.90;;;;;;5069175;28;20584;-45
2022/03/20 10:34:56;;;;;;;11.90;10.23;;;10.10;71.10;;;;;;5057211;28;20946;-44
2022/03/20 10:37:54;;;;;;;14.93;13.43;;;10.10;71.20;;;;;;5063500;28;20464;-48
2022/03/20 10:40:24;;;;;;;12.87;10.83;;;10.10;70.20;;;;;;5065109;28;20427;-48
2022/03/20 10:43:13;;;;;;;12.60;10.70;;;10.10;70.50;;;;;;5053919;28;20554;-48
2022/03/20 10:45:54;;;;;;;13.97;11.37;;;10.10;70.50;;;;;;5039638;28;20945;-47
2022/03/20 10:48:30;;;;;;;13.60;12.03;;;10.10;70.50;;;;;;5061717;28;20929;-47
2022/03/20 10:51:01;;;;;;;12.63;11.33;;;10.20;70.60;;;;;;5056359;28;20470;-47
2022/03/20 10:53:29;;;;;;;15.77;12.00;;;10.10;70.90;;;;;;5070893;28;20494;-48
2022/03/20 10:56:04;;;;;;;15.43;13.13;;;10.10;70.40;;;;;;5056385;28;20453;-45
2022/03/20 10:58:36;;;;;;;13.00;10.90;;;10.10;70.00;;;;;;5064087;28;20532;-47
2022/03/20 11:01:07;;;;;;;15.80;11.93;;;10.10;70.60;;;;;;5056678;28;20485;-48
2022/03/20 11:03:38;;;;;;;13.13;11.30;;;10.10;70.70;;;;;;5057832;28;20470;-48
2022/03/20 11:06:08;;;;;;;13.80;11.80;;;10.10;71.00;;;;;;5071853;28;20426;-47
2022/03/20 11:08:38;;;;;;;14.60;12.13;;;10.10;70.20;;;;;;5055849;28;20504;-45
2022/03/20 11:11:08;;;;;;;11.33;10.13;;;10.10;70.30;;;;;;5057404;28;20544;-45
2022/03/20 11:13:39;;;;;;;18.20;13.23;;;10.10;71.00;;;;;;5067576;28;20896;-45
2022/03/20 11:16:09;;;;;;;17.20;13.30;;;10.10;70.80;;;;;;5067440;28;20450;-44
2022/03/20 11:18:42;;;;;;;14.57;12.63;;;10.10;70.50;;;;;;5072533;28;20461;-47
2022/03/20 11:21:11;;;;;;;16.97;12.40;;;10.10;70.60;;;;;;5082481;28;20768;-46
2022/03/20 11:23:40;;;;;;;16.40;11.23;;;10.10;70.60;;;;;;5063133;28;20474;-47
2022/03/20 11:26:13;;;;;;;18.83;14.63;;;10.10;71.00;;;;;;5050781;28;20427;-44
2022/03/20 11:28:46;;;;;;;23.30;16.63;;;10.10;70.60;;;;;;5061461;28;20477;-46
2022/03/20 11:31:15;;;;;;;28.10;20.47;;;10.10;69.00;;;;;;5070613;28;20457;-45
2022/03/20 11:33:45;;;;;;;25.87;19.03;;;10.10;69.40;;;;;;5050702;28;20475;-46
2022/03/20 11:36:19;;;;;;;22.73;18.47;;;10.10;68.90;;;;;;5052721;28;20485;-46
2022/03/20 11:39:09;;;;;;;23.33;18.20;;;10.20;69.00;;;;;;5057932;28;20474;-47
2022/03/20 11:41:51;;;;;;;30.60;19.27;;;10.10;69.40;;;;;;5058378;28;21153;-47
2022/03/20 11:44:29;;;;;;;20.97;16.93;;;10.10;72.50;;;;;;5027075;28;20460;-45
2022/03/20 11:47:31;;;;;;;27.23;18.10;;;10.10;73.30;;;;;;5062039;28;20824;-44
2022/03/20 11:50:09;;;;;;;30.00;21.55;;;10.10;73.10;;;;;;5068070;28;20431;-45
2022/03/20 11:52:45;;;;;;;25.30;18.67;;;10.10;75.30;;;;;;5063263;28;20233;-48
2022/03/20 11:55:35;;;;;;;24.90;18.13;;;10.10;75.70;;;;;;5054973;28;20458;-44
2022/03/20 11:58:09;;;;;;;25.67;18.70;;;10.10;75.70;;;;;;5064618;28;20910;-46
2022/03/20 12:00:40;;;;;;;22.47;17.40;;;10.10;76.10;;;;;;5039982;28;20871;-47
2022/03/20 12:03:37;;;;;;;26.50;17.40;;;10.10;76.40;;;;;;5070611;28;20462;-47
2022/03/20 12:06:44;;;;;;;21.23;16.47;;;10.10;76.70;;;;;;5052304;28;20541;-47
2022/03/20 12:09:38;;;;;;;23.07;15.87;;;10.10;76.80;;;;;;5059541;28;20901;-48
2022/03/20 12:12:37;;;;;;;21.63;16.37;;;10.00;77.20;;;;;;5071100;28;20480;-46
2022/03/20 12:15:09;;;;;;;19.80;15.50;;;10.00;77.20;;;;;;5057907;28;20836;-45
2022/03/20 12:17:57;;;;;;;19.00;16.43;;;10.00;77.80;;;;;;5069438;28;20489;-45
2022/03/20 12:20:52;;;;;;;22.00;16.37;;;10.00;77.90;;;;;;5070146;28;20505;-45
2022/03/20 12:23:43;;;;;;;25.60;16.60;;;10.00;78.20;;;;;;5056127;28;20485;-48
2022/03/20 12:26:33;;;;;;;23.53;18.10;;;10.00;78.80;;;;;;5051704;28;20790;-45
2022/03/20 12:29:29;;;;;;;22.00;16.70;;;10.00;78.90;;;;;;5061864;28;20477;-43
2022/03/20 12:31:59;;;;;;;21.33;17.50;;;10.00;79.00;;;;;;5043507;28;20544;-46
2022/03/20 12:34:28;;;;;;;20.40;15.57;;;10.00;80.00;;;;;;5049532;28;20273;-44
2022/03/20 12:36:56;;;;;;;19.23;17.17;;;9.90;80.80;;;;;;5059435;28;20434;-44
2022/03/20 12:39:52;;;;;;;21.07;16.03;;;9.90;81.10;;;;;;5070287;28;20453;-45
2022/03/20 12:42:21;;;;;;;18.40;15.30;;;9.90;81.30;;;;;;5050372;28;21017;-44
2022/03/20 12:44:51;;;;;;;24.10;16.60;;;9.90;81.50;;;;;;5063267;28;20537;-46
2022/03/20 12:47:20;;;;;;;24.03;16.70;;;9.90;81.70;;;;;;5054062;28;20917;-45
2022/03/20 12:49:53;;;;;;;27.40;18.13;;;9.90;82.00;;;;;;5052416;28;20512;-44
2022/03/20 12:52:24;;;;;;;21.47;15.60;;;9.90;82.30;;;;;;5068838;28;20488;-45
2022/03/20 12:54:55;;;;;;;19.13;15.37;;;9.90;82.50;;;;;;5058550;28;20431;-45
2022/03/20 12:57:41;;;;;;;22.67;16.77;;;9.90;82.50;;;;;;5060885;28;20794;-44
2022/03/20 13:00:12;;;;;;;16.77;13.63;;;9.90;82.90;;;;;;5060740;28;20878;-46
2022/03/20 13:02:58;;;;;;;19.00;14.70;;;9.90;82.40;;;;;;5069670;28;20485;-44
2022/03/20 13:05:27;;;;;;;18.30;16.00;;;9.90;82.70;;;;;;5049770;28;20436;-47
2022/03/20 13:07:56;;;;;;;18.80;14.03;;;9.90;82.40;;;;;;5064025;28;20458;-45
2022/03/20 13:10:25;;;;;;;20.43;16.30;;;9.90;83.30;;;;;;5068500;28;20476;-46
2022/03/20 13:13:12;;;;;;;21.00;17.23;;;9.90;83.50;;;;;;5068878;28;20481;-46
2022/03/20 13:15:42;;;;;;;17.93;15.13;;;9.90;84.30;;;;;;5068637;28;20549;-48
2022/03/20 13:18:11;;;;;;;22.20;15.90;;;9.90;84.30;;;;;;5068104;28;20480;-44
2022/03/20 13:20:41;;;;;;;19.83;15.50;;;9.90;84.30;;;;;;5068922;28;20935;-45
2022/03/20 13:23:11;;;;;;;18.20;15.63;;;9.90;84.30;;;;;;5066059;28;20489;-44
2022/03/20 13:25:41;;;;;;;20.60;14.70;;;9.90;84.40;;;;;;5069844;28;20458;-45
2022/03/20 13:28:21;;;;;;;19.60;14.77;;;9.90;84.30;;;;;;5049612;28;20455;-46
2022/03/20 13:30:49;;;;;;;17.70;15.77;;;9.90;84.30;;;;;;5059098;28;20442;-45